sensor_id;sensor_type;location;lat;lon;timestamp;temperature;humidity
31542;DHT22;18152;49.986;8.646;2023-05-07T00:00:19;14.90;99.90
31542;DHT22;18152;49.986;8.646;2023-05-07T00:02:45;15.00;99.90
31542;DHT22;18152;49.986;8.646;2023-05-07T00:05:11;15.00;99.90
31542;DHT22;18152;49.986;8.646;2023-05-07T00:07:37;14.90;99.90
31542;DHT22;18152;49.986;8.646;2023-05-07T00:10:03;14.90;99.90
31542;DHT22;18152;49.986;8.646;2023-05-07T00:12:29;14.90;99.90
31542;DHT22;18152;49.986;8.646;2023-05-07T00:15:02;14.90;99.90
31542;DHT22;18152;49.986;8.646;2023-05-07T00:17:28;14.80;99.90
31542;DHT22;18152;49.986;8.646;2023-05-07T00:19:53;14.80;99.90
31542;DHT22;18152;49.986;8.646;2023-05-07T00:22:19;14.90;99.90
31542;DHT22;18152;49.986;8.646;2023-05-07T00:24:44;14.90;99.90
31542;DHT22;18152;49.986;8.646;2023-05-07T00:27:10;14.90;99.90
31542;DHT22;18152;49.986;8.646;2023-05-07T00:29:35;14.90;99.90
31542;DHT22;18152;49.986;8.646;2023-05-07T00:32:02;14.80;99.90
31542;DHT22;18152;49.986;8.646;2023-05-07T00:34:27;14.80;99.90
31542;DHT22;18152;49.986;8.646;2023-05-07T00:36:53;14.80;99.90
31542;DHT22;18152;49.986;8.646;2023-05-07T00:39:18;14.80;99.90
31542;DHT22;18152;49.986;8.646;2023-05-07T00:41:44;15.00;99.90
31542;DHT22;18152;49.986;8.646;2023-05-07T00:44:10;14.90;99.90
31542;DHT22;18152;49.986;8.646;2023-05-07T00:46:35;14.90;99.90
31542;DHT22;18152;49.986;8.646;2023-05-07T00:49:01;14.90;99.90
31542;DHT22;18152;49.986;8.646;2023-05-07T00:51:27;15.00;99.90
31542;DHT22;18152;49.986;8.646;2023-05-07T00:53:53;14.90;99.90
31542;DHT22;18152;49.986;8.646;2023-05-07T00:56:21;14.90;99.90
31542;DHT22;18152;49.986;8.646;2023-05-07T00:58:47;14.80;99.90
31542;DHT22;18152;49.986;8.646;2023-05-07T01:01:12;14.80;99.90
31542;DHT22;18152;49.986;8.646;2023-05-07T01:03:38;14.80;99.90
31542;DHT22;18152;49.986;8.646;2023-05-07T01:06:05;14.90;99.90
31542;DHT22;18152;49.986;8.646;2023-05-07T01:08:31;14.80;99.90
31542;DHT22;18152;49.986;8.646;2023-05-07T01:10:57;14.90;99.90
31542;DHT22;18152;49.986;8.646;2023-05-07T01:13:24;14.90;99.90
31542;DHT22;18152;49.986;8.646;2023-05-07T01:15:51;14.80;99.90
31542;DHT22;18152;49.986;8.646;2023-05-07T01:18:16;14.70;99.90
31542;DHT22;18152;49.986;8.646;2023-05-07T01:20:42;14.70;99.90
31542;DHT22;18152;49.986;8.646;2023-05-07T01:23:08;14.80;99.90
31542;DHT22;18152;49.986;8.646;2023-05-07T01:25:34;14.70;99.90
31542;DHT22;18152;49.986;8.646;2023-05-07T01:28:00;14.70;99.90
31542;DHT22;18152;49.986;8.646;2023-05-07T01:30:27;14.60;99.90
31542;DHT22;18152;49.986;8.646;2023-05-07T01:33:03;14.60;99.90
31542;DHT22;18152;49.986;8.646;2023-05-07T01:35:37;14.60;99.90
31542;DHT22;18152;49.986;8.646;2023-05-07T01:38:04;14.70;99.90
31542;DHT22;18152;49.986;8.646;2023-05-07T01:40:31;14.70;99.90
31542;DHT22;18152;49.986;8.646;2023-05-07T01:42:57;14.80;99.90
31542;DHT22;18152;49.986;8.646;2023-05-07T01:45:23;14.70;99.90
31542;DHT22;18152;49.986;8.646;2023-05-07T01:47:49;14.70;99.90
31542;DHT22;18152;49.986;8.646;2023-05-07T01:50:17;14.60;99.90
31542;DHT22;18152;49.986;8.646;2023-05-07T01:52:43;14.70;99.90
31542;DHT22;18152;49.986;8.646;2023-05-07T01:55:09;14.70;99.90
31542;DHT22;18152;49.986;8.646;2023-05-07T01:57:35;14.70;99.90
31542;DHT22;18152;49.986;8.646;2023-05-07T02:00:01;14.70;99.90
31542;DHT22;18152;49.986;8.646;2023-05-07T02:02:28;14.70;99.90
31542;DHT22;18152;49.986;8.646;2023-05-07T02:04:53;14.60;99.90
31542;DHT22;18152;49.986;8.646;2023-05-07T02:07:19;14.60;99.90
31542;DHT22;18152;49.986;8.646;2023-05-07T02:09:45;14.60;99.90
31542;DHT22;18152;49.986;8.646;2023-05-07T02:12:10;14.50;99.90
31542;DHT22;18152;49.986;8.646;2023-05-07T02:14:36;14.60;99.90
31542;DHT22;18152;49.986;8.646;2023-05-07T02:17:01;14.50;99.90
31542;DHT22;18152;49.986;8.646;2023-05-07T02:19:27;14.60;99.90
31542;DHT22;18152;49.986;8.646;2023-05-07T02:21:53;14.60;99.90
31542;DHT22;18152;49.986;8.646;2023-05-07T02:24:18;14.60;99.90
31542;DHT22;18152;49.986;8.646;2023-05-07T02:26:44;14.60;99.90
31542;DHT22;18152;49.986;8.646;2023-05-07T02:29:09;14.60;99.90
31542;DHT22;18152;49.986;8.646;2023-05-07T02:31:35;14.50;99.90
31542;DHT22;18152;49.986;8.646;2023-05-07T02:34:01;14.60;99.90
31542;DHT22;18152;49.986;8.646;2023-05-07T02:36:26;14.50;99.90
31542;DHT22;18152;49.986;8.646;2023-05-07T02:38:52;14.50;99.90
31542;DHT22;18152;49.986;8.646;2023-05-07T02:41:18;14.50;99.90
31542;DHT22;18152;49.986;8.646;2023-05-07T02:43:43;14.50;99.90
31542;DHT22;18152;49.986;8.646;2023-05-07T02:46:09;14.60;99.90
31542;DHT22;18152;49.986;8.646;2023-05-07T02:48:35;14.60;99.90
31542;DHT22;18152;49.986;8.646;2023-05-07T02:51:01;14.70;99.90
31542;DHT22;18152;49.986;8.646;2023-05-07T02:53:27;14.60;99.90
31542;DHT22;18152;49.986;8.646;2023-05-07T02:55:56;14.50;99.90
31542;DHT22;18152;49.986;8.646;2023-05-07T02:58:22;14.50;99.90
31542;DHT22;18152;49.986;8.646;2023-05-07T03:00:48;14.40;99.90
31542;DHT22;18152;49.986;8.646;2023-05-07T03:03:14;14.50;99.90
31542;DHT22;18152;49.986;8.646;2023-05-07T03:05:40;14.50;99.90
31542;DHT22;18152;49.986;8.646;2023-05-07T03:08:06;14.50;99.90
31542;DHT22;18152;49.986;8.646;2023-05-07T03:10:32;14.40;99.90
31542;DHT22;18152;49.986;8.646;2023-05-07T03:12:57;14.40;99.90
31542;DHT22;18152;49.986;8.646;2023-05-07T03:15:23;14.50;99.90
31542;DHT22;18152;49.986;8.646;2023-05-07T03:17:48;14.40;99.90
31542;DHT22;18152;49.986;8.646;2023-05-07T03:20:14;14.40;99.90
31542;DHT22;18152;49.986;8.646;2023-05-07T03:22:40;14.40;99.90
31542;DHT22;18152;49.986;8.646;2023-05-07T03:25:06;14.40;99.90
31542;DHT22;18152;49.986;8.646;2023-05-07T03:27:32;14.40;99.90
31542;DHT22;18152;49.986;8.646;2023-05-07T03:29:58;14.30;99.90
31542;DHT22;18152;49.986;8.646;2023-05-07T03:32:23;14.30;99.90
31542;DHT22;18152;49.986;8.646;2023-05-07T03:34:49;14.30;99.90
31542;DHT22;18152;49.986;8.646;2023-05-07T03:37:14;14.30;99.90
31542;DHT22;18152;49.986;8.646;2023-05-07T03:39:40;14.30;99.90
31542;DHT22;18152;49.986;8.646;2023-05-07T03:42:06;14.30;99.90
31542;DHT22;18152;49.986;8.646;2023-05-07T03:44:31;14.30;99.90
31542;DHT22;18152;49.986;8.646;2023-05-07T03:46:57;14.20;99.90
31542;DHT22;18152;49.986;8.646;2023-05-07T03:49:22;14.20;99.90
31542;DHT22;18152;49.986;8.646;2023-05-07T03:51:48;14.20;99.90
31542;DHT22;18152;49.986;8.646;2023-05-07T03:54:13;14.20;99.90
31542;DHT22;18152;49.986;8.646;2023-05-07T03:56:39;14.20;99.90
31542;DHT22;18152;49.986;8.646;2023-05-07T03:59:05;14.20;99.90
31542;DHT22;18152;49.986;8.646;2023-05-07T04:01:30;14.20;99.90
31542;DHT22;18152;49.986;8.646;2023-05-07T04:03:56;14.20;99.90
31542;DHT22;18152;49.986;8.646;2023-05-07T04:06:22;14.20;99.90
31542;DHT22;18152;49.986;8.646;2023-05-07T04:08:47;14.20;99.90
31542;DHT22;18152;49.986;8.646;2023-05-07T04:11:13;14.10;99.90
31542;DHT22;18152;49.986;8.646;2023-05-07T04:13:39;14.20;99.90
31542;DHT22;18152;49.986;8.646;2023-05-07T04:16:05;14.10;99.90
31542;DHT22;18152;49.986;8.646;2023-05-07T04:18:31;14.10;99.90
31542;DHT22;18152;49.986;8.646;2023-05-07T04:20:56;14.10;99.90
31542;DHT22;18152;49.986;8.646;2023-05-07T04:23:22;14.20;99.90
31542;DHT22;18152;49.986;8.646;2023-05-07T04:25:47;14.10;99.90
31542;DHT22;18152;49.986;8.646;2023-05-07T04:28:13;14.20;99.90
31542;DHT22;18152;49.986;8.646;2023-05-07T04:30:39;14.20;99.90
31542;DHT22;18152;49.986;8.646;2023-05-07T04:33:06;14.20;99.90
31542;DHT22;18152;49.986;8.646;2023-05-07T04:35:32;14.10;99.90
31542;DHT22;18152;49.986;8.646;2023-05-07T04:37:58;14.20;99.90
31542;DHT22;18152;49.986;8.646;2023-05-07T04:40:23;14.30;99.90
31542;DHT22;18152;49.986;8.646;2023-05-07T04:42:49;14.30;99.90
31542;DHT22;18152;49.986;8.646;2023-05-07T04:45:15;14.30;99.90
31542;DHT22;18152;49.986;8.646;2023-05-07T04:47:40;14.40;99.90
31542;DHT22;18152;49.986;8.646;2023-05-07T04:50:06;14.40;99.90
31542;DHT22;18152;49.986;8.646;2023-05-07T04:52:33;14.30;99.90
31542;DHT22;18152;49.986;8.646;2023-05-07T04:55:00;14.30;99.90
31542;DHT22;18152;49.986;8.646;2023-05-07T04:57:26;14.40;99.90
31542;DHT22;18152;49.986;8.646;2023-05-07T04:59:52;14.30;99.90
31542;DHT22;18152;49.986;8.646;2023-05-07T05:02:18;14.40;99.90
31542;DHT22;18152;49.986;8.646;2023-05-07T05:04:44;14.30;99.90
31542;DHT22;18152;49.986;8.646;2023-05-07T05:07:09;14.30;99.90
31542;DHT22;18152;49.986;8.646;2023-05-07T05:09:35;14.30;99.90
31542;DHT22;18152;49.986;8.646;2023-05-07T05:12:00;14.30;99.90
31542;DHT22;18152;49.986;8.646;2023-05-07T05:14:26;14.30;99.90
31542;DHT22;18152;49.986;8.646;2023-05-07T05:16:52;14.40;99.90
31542;DHT22;18152;49.986;8.646;2023-05-07T05:19:17;14.30;99.90
31542;DHT22;18152;49.986;8.646;2023-05-07T05:21:43;14.40;99.90
31542;DHT22;18152;49.986;8.646;2023-05-07T05:24:08;14.40;99.90
31542;DHT22;18152;49.986;8.646;2023-05-07T05:26:34;14.40;99.90
31542;DHT22;18152;49.986;8.646;2023-05-07T05:29:00;14.50;99.90
31542;DHT22;18152;49.986;8.646;2023-05-07T05:31:25;14.60;99.90
31542;DHT22;18152;49.986;8.646;2023-05-07T05:33:51;14.60;99.90
31542;DHT22;18152;49.986;8.646;2023-05-07T05:36:17;14.70;99.90
31542;DHT22;18152;49.986;8.646;2023-05-07T05:38:42;14.80;99.90
31542;DHT22;18152;49.986;8.646;2023-05-07T05:41:09;14.90;99.90
31542;DHT22;18152;49.986;8.646;2023-05-07T05:43:35;14.90;99.90
31542;DHT22;18152;49.986;8.646;2023-05-07T05:46:00;15.00;99.90
31542;DHT22;18152;49.986;8.646;2023-05-07T05:48:26;14.90;99.90
31542;DHT22;18152;49.986;8.646;2023-05-07T05:50:51;15.00;99.90
31542;DHT22;18152;49.986;8.646;2023-05-07T05:53:17;15.00;99.90
31542;DHT22;18152;49.986;8.646;2023-05-07T05:55:43;15.10;99.90
31542;DHT22;18152;49.986;8.646;2023-05-07T05:58:09;15.10;99.90
31542;DHT22;18152;49.986;8.646;2023-05-07T06:00:34;15.10;99.90
31542;DHT22;18152;49.986;8.646;2023-05-07T06:03:00;15.20;99.90
31542;DHT22;18152;49.986;8.646;2023-05-07T06:05:26;15.20;99.90
31542;DHT22;18152;49.986;8.646;2023-05-07T06:07:51;15.30;99.90
31542;DHT22;18152;49.986;8.646;2023-05-07T06:10:17;15.30;99.90
31542;DHT22;18152;49.986;8.646;2023-05-07T06:12:43;15.50;99.90
31542;DHT22;18152;49.986;8.646;2023-05-07T06:15:09;15.50;99.90
31542;DHT22;18152;49.986;8.646;2023-05-07T06:17:34;15.80;99.90
31542;DHT22;18152;49.986;8.646;2023-05-07T06:20:00;15.90;99.90
31542;DHT22;18152;49.986;8.646;2023-05-07T06:22:26;16.00;99.90
31542;DHT22;18152;49.986;8.646;2023-05-07T06:24:51;16.00;99.90
31542;DHT22;18152;49.986;8.646;2023-05-07T06:27:17;16.00;99.90
31542;DHT22;18152;49.986;8.646;2023-05-07T06:29:42;16.10;99.90
31542;DHT22;18152;49.986;8.646;2023-05-07T06:34:33;16.20;99.90
31542;DHT22;18152;49.986;8.646;2023-05-07T06:36:59;16.20;99.90
31542;DHT22;18152;49.986;8.646;2023-05-07T06:39:24;16.30;99.90
31542;DHT22;18152;49.986;8.646;2023-05-07T06:41:50;16.40;99.90
31542;DHT22;18152;49.986;8.646;2023-05-07T06:44:16;16.60;99.90
31542;DHT22;18152;49.986;8.646;2023-05-07T06:46:41;16.60;99.90
31542;DHT22;18152;49.986;8.646;2023-05-07T06:49:07;16.70;99.90
31542;DHT22;18152;49.986;8.646;2023-05-07T06:51:33;16.70;99.90
31542;DHT22;18152;49.986;8.646;2023-05-07T06:53:59;16.90;99.90
31542;DHT22;18152;49.986;8.646;2023-05-07T06:56:24;17.10;99.90
31542;DHT22;18152;49.986;8.646;2023-05-07T06:58:50;17.10;99.90
31542;DHT22;18152;49.986;8.646;2023-05-07T07:01:16;17.10;99.90
31542;DHT22;18152;49.986;8.646;2023-05-07T07:03:41;17.10;99.90
31542;DHT22;18152;49.986;8.646;2023-05-07T07:06:07;17.00;99.90
31542;DHT22;18152;49.986;8.646;2023-05-07T07:08:33;16.80;99.90
31542;DHT22;18152;49.986;8.646;2023-05-07T07:10:58;16.90;99.90
31542;DHT22;18152;49.986;8.646;2023-05-07T07:13:24;16.80;99.90
31542;DHT22;18152;49.986;8.646;2023-05-07T07:15:49;17.00;99.90
31542;DHT22;18152;49.986;8.646;2023-05-07T07:18:15;17.00;99.90
31542;DHT22;18152;49.986;8.646;2023-05-07T07:20:41;16.90;99.90
31542;DHT22;18152;49.986;8.646;2023-05-07T07:23:06;17.10;99.90
31542;DHT22;18152;49.986;8.646;2023-05-07T07:25:32;17.10;99.90
31542;DHT22;18152;49.986;8.646;2023-05-07T07:27:58;17.10;99.90
31542;DHT22;18152;49.986;8.646;2023-05-07T07:30:23;17.20;99.90
31542;DHT22;18152;49.986;8.646;2023-05-07T07:32:49;17.20;99.90
31542;DHT22;18152;49.986;8.646;2023-05-07T07:35:14;17.30;99.90
31542;DHT22;18152;49.986;8.646;2023-05-07T07:37:40;17.30;99.90
31542;DHT22;18152;49.986;8.646;2023-05-07T07:40:06;17.30;99.90
31542;DHT22;18152;49.986;8.646;2023-05-07T07:42:32;17.10;99.90
31542;DHT22;18152;49.986;8.646;2023-05-07T07:44:57;17.00;99.90
31542;DHT22;18152;49.986;8.646;2023-05-07T07:47:23;17.00;99.90
31542;DHT22;18152;49.986;8.646;2023-05-07T07:49:49;17.00;99.90
31542;DHT22;18152;49.986;8.646;2023-05-07T07:52:14;17.10;99.90
31542;DHT22;18152;49.986;8.646;2023-05-07T07:54:40;17.10;99.90
31542;DHT22;18152;49.986;8.646;2023-05-07T07:57:06;17.10;99.90
31542;DHT22;18152;49.986;8.646;2023-05-07T07:59:32;17.00;99.90
31542;DHT22;18152;49.986;8.646;2023-05-07T08:01:57;17.10;99.90
31542;DHT22;18152;49.986;8.646;2023-05-07T08:04:23;17.30;99.90
31542;DHT22;18152;49.986;8.646;2023-05-07T08:06:48;17.40;99.90
31542;DHT22;18152;49.986;8.646;2023-05-07T08:09:14;17.40;99.90
31542;DHT22;18152;49.986;8.646;2023-05-07T08:11:40;17.40;99.90
31542;DHT22;18152;49.986;8.646;2023-05-07T08:14:06;17.50;99.90
31542;DHT22;18152;49.986;8.646;2023-05-07T08:16:31;17.60;99.90
31542;DHT22;18152;49.986;8.646;2023-05-07T08:18:57;17.60;99.90
31542;DHT22;18152;49.986;8.646;2023-05-07T08:21:22;17.60;99.90
31542;DHT22;18152;49.986;8.646;2023-05-07T08:23:48;17.60;99.90
31542;DHT22;18152;49.986;8.646;2023-05-07T08:26:14;17.60;99.90
31542;DHT22;18152;49.986;8.646;2023-05-07T08:28:39;17.60;99.90
31542;DHT22;18152;49.986;8.646;2023-05-07T08:31:05;17.70;99.90
31542;DHT22;18152;49.986;8.646;2023-05-07T08:33:31;17.70;99.90
31542;DHT22;18152;49.986;8.646;2023-05-07T08:35:56;17.80;99.90
31542;DHT22;18152;49.986;8.646;2023-05-07T08:38:22;17.90;99.90
31542;DHT22;18152;49.986;8.646;2023-05-07T08:40:48;18.00;99.90
31542;DHT22;18152;49.986;8.646;2023-05-07T08:43:14;18.10;99.90
31542;DHT22;18152;49.986;8.646;2023-05-07T08:45:40;18.10;99.90
31542;DHT22;18152;49.986;8.646;2023-05-07T08:48:14;18.30;99.90
31542;DHT22;18152;49.986;8.646;2023-05-07T08:50:40;18.30;99.90
31542;DHT22;18152;49.986;8.646;2023-05-07T08:53:06;18.50;99.90
31542;DHT22;18152;49.986;8.646;2023-05-07T08:55:32;18.70;99.90
31542;DHT22;18152;49.986;8.646;2023-05-07T08:57:58;18.60;99.90
31542;DHT22;18152;49.986;8.646;2023-05-07T09:00:24;18.60;99.90
31542;DHT22;18152;49.986;8.646;2023-05-07T09:02:50;18.60;99.90
31542;DHT22;18152;49.986;8.646;2023-05-07T09:05:16;18.50;99.90
31542;DHT22;18152;49.986;8.646;2023-05-07T09:07:41;18.70;99.90
31542;DHT22;18152;49.986;8.646;2023-05-07T09:10:07;18.80;99.90
31542;DHT22;18152;49.986;8.646;2023-05-07T09:12:33;19.00;99.90
31542;DHT22;18152;49.986;8.646;2023-05-07T09:15:00;19.00;99.90
31542;DHT22;18152;49.986;8.646;2023-05-07T09:17:26;19.00;99.90
31542;DHT22;18152;49.986;8.646;2023-05-07T09:19:52;19.30;99.90
31542;DHT22;18152;49.986;8.646;2023-05-07T09:22:19;19.40;99.90
31542;DHT22;18152;49.986;8.646;2023-05-07T09:24:48;19.50;99.90
31542;DHT22;18152;49.986;8.646;2023-05-07T09:27:14;19.20;99.90
31542;DHT22;18152;49.986;8.646;2023-05-07T09:29:40;19.10;99.90
31542;DHT22;18152;49.986;8.646;2023-05-07T09:32:06;19.60;99.90
31542;DHT22;18152;49.986;8.646;2023-05-07T09:34:33;19.80;99.90
31542;DHT22;18152;49.986;8.646;2023-05-07T09:37:01;19.90;99.90
31542;DHT22;18152;49.986;8.646;2023-05-07T09:39:44;20.30;99.90
31542;DHT22;18152;49.986;8.646;2023-05-07T09:42:12;20.50;99.90
31542;DHT22;18152;49.986;8.646;2023-05-07T09:44:38;20.50;99.90
31542;DHT22;18152;49.986;8.646;2023-05-07T09:47:07;20.60;99.90
31542;DHT22;18152;49.986;8.646;2023-05-07T09:49:37;20.60;99.90
31542;DHT22;18152;49.986;8.646;2023-05-07T09:52:05;21.10;99.90
31542;DHT22;18152;49.986;8.646;2023-05-07T09:54:37;21.50;99.90
31542;DHT22;18152;49.986;8.646;2023-05-07T09:57:06;21.90;99.90
31542;DHT22;18152;49.986;8.646;2023-05-07T09:59:32;22.20;99.90
31542;DHT22;18152;49.986;8.646;2023-05-07T10:02:00;22.10;99.90
31542;DHT22;18152;49.986;8.646;2023-05-07T10:04:26;22.40;99.90
31542;DHT22;18152;49.986;8.646;2023-05-07T10:06:52;22.50;99.90
31542;DHT22;18152;49.986;8.646;2023-05-07T10:09:19;22.90;99.90
31542;DHT22;18152;49.986;8.646;2023-05-07T10:11:46;23.00;98.60
31542;DHT22;18152;49.986;8.646;2023-05-07T10:14:13;22.40;97.90
31542;DHT22;18152;49.986;8.646;2023-05-07T10:16:39;22.70;98.80
31542;DHT22;18152;49.986;8.646;2023-05-07T10:19:06;23.30;99.90
31542;DHT22;18152;49.986;8.646;2023-05-07T10:21:36;23.80;99.90
31542;DHT22;18152;49.986;8.646;2023-05-07T10:24:09;23.70;97.80
31542;DHT22;18152;49.986;8.646;2023-05-07T10:26:41;23.60;96.80
31542;DHT22;18152;49.986;8.646;2023-05-07T10:29:15;23.00;97.00
31542;DHT22;18152;49.986;8.646;2023-05-07T10:34:34;23.20;96.20
31542;DHT22;18152;49.986;8.646;2023-05-07T10:37:01;22.60;96.20
31542;DHT22;18152;49.986;8.646;2023-05-07T10:39:27;22.10;96.90
31542;DHT22;18152;49.986;8.646;2023-05-07T10:41:53;22.00;97.00
31542;DHT22;18152;49.986;8.646;2023-05-07T10:44:28;22.00;97.20
31542;DHT22;18152;49.986;8.646;2023-05-07T10:47:23;21.90;96.40
31542;DHT22;18152;49.986;8.646;2023-05-07T10:52:16;23.70;99.30
31542;DHT22;18152;49.986;8.646;2023-05-07T10:54:43;23.90;94.50
31542;DHT22;18152;49.986;8.646;2023-05-07T10:59:57;24.60;94.80
31542;DHT22;18152;49.986;8.646;2023-05-07T11:02:23;25.10;91.90
31542;DHT22;18152;49.986;8.646;2023-05-07T11:07:24;26.20;90.10
31542;DHT22;18152;49.986;8.646;2023-05-07T11:15:12;25.40;90.90
31542;DHT22;18152;49.986;8.646;2023-05-07T11:17:54;25.90;84.50
31542;DHT22;18152;49.986;8.646;2023-05-07T11:20:20;26.70;85.30
31542;DHT22;18152;49.986;8.646;2023-05-07T11:22:46;26.30;83.30
31542;DHT22;18152;49.986;8.646;2023-05-07T11:25:17;26.70;86.80
31542;DHT22;18152;49.986;8.646;2023-05-07T11:27:44;26.10;80.40
31542;DHT22;18152;49.986;8.646;2023-05-07T11:30:11;26.30;81.00
31542;DHT22;18152;49.986;8.646;2023-05-07T11:32:42;27.10;80.10
31542;DHT22;18152;49.986;8.646;2023-05-07T11:35:08;28.10;78.10
31542;DHT22;18152;49.986;8.646;2023-05-07T11:37:33;28.40;78.60
31542;DHT22;18152;49.986;8.646;2023-05-07T11:40:07;27.40;72.80
31542;DHT22;18152;49.986;8.646;2023-05-07T11:42:38;27.40;77.00
31542;DHT22;18152;49.986;8.646;2023-05-07T11:45:05;27.90;73.60
31542;DHT22;18152;49.986;8.646;2023-05-07T11:47:31;28.10;78.50
31542;DHT22;18152;49.986;8.646;2023-05-07T11:49:57;28.60;73.00
31542;DHT22;18152;49.986;8.646;2023-05-07T11:52:27;27.20;67.80
31542;DHT22;18152;49.986;8.646;2023-05-07T11:54:54;26.00;72.70
31542;DHT22;18152;49.986;8.646;2023-05-07T11:57:21;25.90;70.10
31542;DHT22;18152;49.986;8.646;2023-05-07T11:59:46;25.30;72.10
31542;DHT22;18152;49.986;8.646;2023-05-07T12:02:17;25.00;70.90
31542;DHT22;18152;49.986;8.646;2023-05-07T12:04:44;24.80;73.30
31542;DHT22;18152;49.986;8.646;2023-05-07T12:07:13;25.00;71.80
31542;DHT22;18152;49.986;8.646;2023-05-07T12:09:39;24.90;75.10
31542;DHT22;18152;49.986;8.646;2023-05-07T12:12:05;24.80;76.40
31542;DHT22;18152;49.986;8.646;2023-05-07T12:14:31;24.70;70.80
31542;DHT22;18152;49.986;8.646;2023-05-07T12:16:59;24.50;72.70
31542;DHT22;18152;49.986;8.646;2023-05-07T12:19:29;24.80;76.10
31542;DHT22;18152;49.986;8.646;2023-05-07T12:21:55;24.50;72.20
31542;DHT22;18152;49.986;8.646;2023-05-07T12:24:21;24.40;74.50
31542;DHT22;18152;49.986;8.646;2023-05-07T12:26:48;24.30;75.90
31542;DHT22;18152;49.986;8.646;2023-05-07T12:29:13;24.60;75.50
31542;DHT22;18152;49.986;8.646;2023-05-07T12:31:43;24.20;75.80
31542;DHT22;18152;49.986;8.646;2023-05-07T12:34:11;24.50;80.00
31542;DHT22;18152;49.986;8.646;2023-05-07T12:36:37;24.30;73.20
31542;DHT22;18152;49.986;8.646;2023-05-07T12:39:07;24.20;73.60
31542;DHT22;18152;49.986;8.646;2023-05-07T12:41:51;24.00;74.10
31542;DHT22;18152;49.986;8.646;2023-05-07T12:44:17;24.10;73.20
31542;DHT22;18152;49.986;8.646;2023-05-07T12:46:43;24.00;72.50
31542;DHT22;18152;49.986;8.646;2023-05-07T12:49:08;24.00;74.00
31542;DHT22;18152;49.986;8.646;2023-05-07T12:51:35;24.20;77.80
31542;DHT22;18152;49.986;8.646;2023-05-07T12:54:01;24.10;75.90
31542;DHT22;18152;49.986;8.646;2023-05-07T12:56:26;23.90;77.30
31542;DHT22;18152;49.986;8.646;2023-05-07T12:58:57;24.60;76.40
31542;DHT22;18152;49.986;8.646;2023-05-07T13:01:29;24.30;74.90
31542;DHT22;18152;49.986;8.646;2023-05-07T13:03:55;24.60;79.90
31542;DHT22;18152;49.986;8.646;2023-05-07T13:06:20;24.60;76.60
31542;DHT22;18152;49.986;8.646;2023-05-07T13:08:46;24.40;76.50
31542;DHT22;18152;49.986;8.646;2023-05-07T13:11:12;23.80;75.00
31542;DHT22;18152;49.986;8.646;2023-05-07T13:13:40;23.40;77.40
31542;DHT22;18152;49.986;8.646;2023-05-07T13:16:08;23.60;79.60
31542;DHT22;18152;49.986;8.646;2023-05-07T13:18:38;23.80;81.00
31542;DHT22;18152;49.986;8.646;2023-05-07T13:21:04;23.60;76.50
31542;DHT22;18152;49.986;8.646;2023-05-07T13:23:33;23.60;77.40
31542;DHT22;18152;49.986;8.646;2023-05-07T13:25:59;23.70;81.20
31542;DHT22;18152;49.986;8.646;2023-05-07T13:28:24;24.20;85.90
31542;DHT22;18152;49.986;8.646;2023-05-07T13:30:51;24.60;76.10
31542;DHT22;18152;49.986;8.646;2023-05-07T13:33:17;24.90;81.40
31542;DHT22;18152;49.986;8.646;2023-05-07T13:35:44;25.10;74.60
31542;DHT22;18152;49.986;8.646;2023-05-07T13:38:09;24.40;75.40
31542;DHT22;18152;49.986;8.646;2023-05-07T13:40:35;24.10;73.10
31542;DHT22;18152;49.986;8.646;2023-05-07T13:43:01;24.40;75.90
31542;DHT22;18152;49.986;8.646;2023-05-07T13:45:30;25.00;78.10
31542;DHT22;18152;49.986;8.646;2023-05-07T13:47:56;25.30;76.50
31542;DHT22;18152;49.986;8.646;2023-05-07T13:50:21;25.70;74.70
31542;DHT22;18152;49.986;8.646;2023-05-07T13:52:47;25.40;72.20
31542;DHT22;18152;49.986;8.646;2023-05-07T13:55:20;25.20;72.40
31542;DHT22;18152;49.986;8.646;2023-05-07T13:57:46;25.40;75.10
31542;DHT22;18152;49.986;8.646;2023-05-07T14:00:12;25.00;72.70
31542;DHT22;18152;49.986;8.646;2023-05-07T14:02:38;24.50;73.80
31542;DHT22;18152;49.986;8.646;2023-05-07T14:05:04;24.30;71.60
31542;DHT22;18152;49.986;8.646;2023-05-07T14:07:30;24.00;76.00
31542;DHT22;18152;49.986;8.646;2023-05-07T14:09:56;24.40;78.80
31542;DHT22;18152;49.986;8.646;2023-05-07T14:12:22;24.60;77.70
31542;DHT22;18152;49.986;8.646;2023-05-07T14:14:48;24.90;76.60
31542;DHT22;18152;49.986;8.646;2023-05-07T14:17:17;24.60;71.60
31542;DHT22;18152;49.986;8.646;2023-05-07T14:19:44;24.70;74.30
31542;DHT22;18152;49.986;8.646;2023-05-07T14:22:09;24.80;71.70
31542;DHT22;18152;49.986;8.646;2023-05-07T14:24:35;24.80;74.50
31542;DHT22;18152;49.986;8.646;2023-05-07T14:27:01;24.80;70.30
31542;DHT22;18152;49.986;8.646;2023-05-07T14:29:28;24.70;71.40
31542;DHT22;18152;49.986;8.646;2023-05-07T14:31:53;24.70;73.90
31542;DHT22;18152;49.986;8.646;2023-05-07T14:34:19;24.50;73.20
31542;DHT22;18152;49.986;8.646;2023-05-07T14:36:44;24.80;71.20
31542;DHT22;18152;49.986;8.646;2023-05-07T14:39:10;25.00;74.40
31542;DHT22;18152;49.986;8.646;2023-05-07T14:41:35;25.10;71.80
31542;DHT22;18152;49.986;8.646;2023-05-07T14:44:01;25.30;70.90
31542;DHT22;18152;49.986;8.646;2023-05-07T14:46:29;24.90;70.50
31542;DHT22;18152;49.986;8.646;2023-05-07T14:48:57;24.60;71.80
31542;DHT22;18152;49.986;8.646;2023-05-07T14:51:22;24.30;75.40
31542;DHT22;18152;49.986;8.646;2023-05-07T14:53:49;24.30;71.20
31542;DHT22;18152;49.986;8.646;2023-05-07T14:56:15;24.10;74.40
31542;DHT22;18152;49.986;8.646;2023-05-07T14:58:42;23.90;70.70
31542;DHT22;18152;49.986;8.646;2023-05-07T15:01:08;23.50;72.20
31542;DHT22;18152;49.986;8.646;2023-05-07T15:03:34;23.50;75.10
31542;DHT22;18152;49.986;8.646;2023-05-07T15:06:00;23.30;73.90
31542;DHT22;18152;49.986;8.646;2023-05-07T15:08:26;23.40;74.70
31542;DHT22;18152;49.986;8.646;2023-05-07T15:10:51;23.20;75.40
31542;DHT22;18152;49.986;8.646;2023-05-07T15:13:17;23.20;76.60
31542;DHT22;18152;49.986;8.646;2023-05-07T15:15:43;23.20;76.70
31542;DHT22;18152;49.986;8.646;2023-05-07T15:18:09;23.10;73.70
31542;DHT22;18152;49.986;8.646;2023-05-07T15:20:36;23.20;75.20
31542;DHT22;18152;49.986;8.646;2023-05-07T15:23:01;23.10;75.70
31542;DHT22;18152;49.986;8.646;2023-05-07T15:25:28;23.00;73.70
31542;DHT22;18152;49.986;8.646;2023-05-07T15:27:53;22.90;72.30
31542;DHT22;18152;49.986;8.646;2023-05-07T15:30:19;22.90;74.00
31542;DHT22;18152;49.986;8.646;2023-05-07T15:32:45;22.80;73.80
31542;DHT22;18152;49.986;8.646;2023-05-07T15:35:11;22.70;72.00
31542;DHT22;18152;49.986;8.646;2023-05-07T15:37:37;22.50;72.80
31542;DHT22;18152;49.986;8.646;2023-05-07T15:40:03;22.50;73.80
31542;DHT22;18152;49.986;8.646;2023-05-07T15:42:30;22.50;73.00